createdAt,value
2023-06-30T00:00:16.797Z,7.69
2023-06-30T00:03:07.742Z,7.64
2023-06-30T00:05:36.067Z,7.62
2023-06-30T00:08:04.787Z,7.57
2023-06-30T00:10:33.083Z,7.55
2023-06-30T00:13:01.534Z,7.55
2023-06-30T00:15:29.931Z,7.58
2023-06-30T00:17:58.560Z,7.61
2023-06-30T00:20:27.058Z,7.63
2023-06-30T00:22:55.353Z,7.62
2023-06-30T00:25:23.653Z,7.59
2023-06-30T00:27:51.870Z,7.56
2023-06-30T00:30:20.114Z,7.52
2023-06-30T00:32:50.889Z,7.47
2023-06-30T00:35:20.440Z,7.45
2023-06-30T00:37:48.726Z,7.44
2023-06-30T00:40:16.888Z,7.46
2023-06-30T00:42:45.260Z,7.47
2023-06-30T00:45:13.777Z,7.45
2023-06-30T00:47:43.933Z,7.43
2023-06-30T00:50:14.119Z,7.39
2023-06-30T00:52:44.875Z,7.36
2023-06-30T00:55:14.417Z,7.34
2023-06-30T00:57:43.641Z,7.34
2023-06-30T01:00:13.150Z,7.31
2023-06-30T01:02:53.045Z,7.33
2023-06-30T01:05:36.024Z,7.33
2023-06-30T01:08:21.580Z,7.33
2023-06-30T01:10:51.359Z,7.33
2023-06-30T01:13:19.949Z,7.27
2023-06-30T01:15:50.271Z,7.23
2023-06-30T01:18:23.188Z,7.19
2023-06-30T01:20:52.408Z,7.15
2023-06-30T01:23:54.001Z,7.14
2023-06-30T01:26:23.562Z,7.14
2023-06-30T01:28:52.452Z,7.14
2023-06-30T01:31:21.694Z,7.16
2023-06-30T01:33:50.417Z,7.19
2023-06-30T01:36:18.890Z,7.19
2023-06-30T01:38:47.233Z,7.18
2023-06-30T01:41:15.626Z,7.18
2023-06-30T01:43:45.910Z,7.17
2023-06-30T01:46:15.258Z,7.17
2023-06-30T01:48:44.541Z,7.18
2023-06-30T01:51:15.024Z,7.14
2023-06-30T01:53:43.545Z,7.14
2023-06-30T01:56:13.571Z,7.14
2023-06-30T01:58:41.948Z,7.13
2023-06-30T02:01:10.337Z,7.10
2023-06-30T02:03:38.922Z,7.06
2023-06-30T02:06:07.371Z,7.01
2023-06-30T02:08:35.620Z,7.01
2023-06-30T02:11:04.156Z,6.99
2023-06-30T02:13:32.577Z,6.98
2023-06-30T02:16:00.939Z,6.98
2023-06-30T02:18:29.167Z,6.99
2023-06-30T02:20:57.410Z,7.00
2023-06-30T02:23:30.274Z,7.02
2023-06-30T02:25:58.788Z,7.02
2023-06-30T02:28:27.417Z,6.98
2023-06-30T02:30:57.324Z,6.94
2023-06-30T02:33:25.942Z,6.92
2023-06-30T02:35:54.359Z,6.94
2023-06-30T02:38:22.711Z,6.95
2023-06-30T02:40:51.026Z,6.96
2023-06-30T02:43:19.312Z,6.97
2023-06-30T02:45:47.923Z,6.99
2023-06-30T02:48:16.554Z,7.03
2023-06-30T02:50:44.978Z,7.08
2023-06-30T02:53:14.240Z,7.09
2023-06-30T02:55:42.723Z,7.06
2023-06-30T02:58:14.616Z,7.04
2023-06-30T03:00:43.675Z,7.02
2023-06-30T03:03:12.702Z,7.01
2023-06-30T03:05:42.507Z,7.03
2023-06-30T03:08:12.044Z,7.04
2023-06-30T03:10:41.717Z,7.11
2023-06-30T03:13:10.133Z,7.18
2023-06-30T03:15:38.420Z,7.24
2023-06-30T03:18:07.576Z,7.30
2023-06-30T03:20:36.238Z,7.34
2023-06-30T03:23:06.372Z,7.35
2023-06-30T03:25:34.632Z,7.34
2023-06-30T03:28:02.925Z,7.32
2023-06-30T03:30:31.632Z,7.33
2023-06-30T03:33:00.061Z,7.37
2023-06-30T03:35:28.473Z,7.43
2023-06-30T03:37:56.744Z,7.52
2023-06-30T03:40:25.304Z,7.63
2023-06-30T03:42:53.703Z,7.70
2023-06-30T03:45:22.003Z,7.76
2023-06-30T03:47:50.242Z,7.83
2023-06-30T03:50:18.833Z,7.93
2023-06-30T03:52:47.209Z,7.98
2023-06-30T03:55:15.590Z,8.06
2023-06-30T03:57:44.042Z,8.15
2023-06-30T04:00:12.976Z,8.25
2023-06-30T04:02:42.090Z,8.36
2023-06-30T04:05:11.283Z,8.47
2023-06-30T04:07:39.744Z,8.58
2023-06-30T04:10:08.512Z,8.69
2023-06-30T04:12:36.755Z,8.77
2023-06-30T04:15:08.750Z,8.86
2023-06-30T04:17:37.353Z,8.96
2023-06-30T04:20:11.055Z,9.09
2023-06-30T04:22:39.617Z,9.21
2023-06-30T04:25:08.575Z,9.31
2023-06-30T04:27:36.940Z,9.46
2023-06-30T04:30:08.427Z,9.66
2023-06-30T04:32:36.856Z,9.92
2023-06-30T04:35:05.868Z,10.20
2023-06-30T04:37:34.100Z,10.45
2023-06-30T04:40:05.806Z,10.68
2023-06-30T04:42:34.164Z,11.00
2023-06-30T04:45:02.466Z,11.32
2023-06-30T04:47:30.898Z,11.56
2023-06-30T04:49:59.335Z,11.74
2023-06-30T04:52:27.679Z,11.82
2023-06-30T04:54:57.558Z,11.95
2023-06-30T04:57:25.858Z,12.03
2023-06-30T04:59:56.145Z,12.10
2023-06-30T05:02:24.476Z,12.19
2023-06-30T05:04:52.773Z,12.26
2023-06-30T05:07:21.795Z,12.36
2023-06-30T05:09:50.110Z,12.49
2023-06-30T05:12:18.537Z,12.61
2023-06-30T05:14:47.650Z,12.75
2023-06-30T05:17:16.625Z,12.91
2023-06-30T05:19:45.111Z,13.10
2023-06-30T05:22:13.452Z,13.30
2023-06-30T05:24:41.736Z,13.48
2023-06-30T05:27:10.076Z,13.72
2023-06-30T05:29:38.285Z,14.13
2023-06-30T05:32:07.537Z,14.52
2023-06-30T05:34:35.866Z,14.96
2023-06-30T05:37:04.486Z,15.57
2023-06-30T05:39:32.665Z,16.21
2023-06-30T05:42:02.336Z,16.80
2023-06-30T05:44:30.715Z,17.31
2023-06-30T05:46:59.113Z,17.89
2023-06-30T05:49:27.413Z,18.32
2023-06-30T05:51:55.716Z,18.80
2023-06-30T05:54:23.985Z,19.15
2023-06-30T05:56:52.352Z,19.52
2023-06-30T05:59:20.647Z,20.04
2023-06-30T06:01:49.391Z,20.44
2023-06-30T06:04:19.687Z,20.82
2023-06-30T06:06:48.282Z,21.20
2023-06-30T06:09:16.816Z,21.62
2023-06-30T06:11:45.158Z,21.76
2023-06-30T06:14:13.393Z,21.86
2023-06-30T06:16:45.998Z,22.15
2023-06-30T06:19:16.326Z,22.28
2023-06-30T06:21:44.749Z,22.44
2023-06-30T06:24:13.709Z,22.59
2023-06-30T06:26:43.100Z,22.78
2023-06-30T06:29:15.779Z,22.91
2023-06-30T06:31:46.098Z,22.97
2023-06-30T06:34:14.398Z,23.28
2023-06-30T06:36:42.655Z,23.80
2023-06-30T06:39:10.965Z,23.81
2023-06-30T06:41:39.636Z,23.96
2023-06-30T06:44:08.576Z,23.94
2023-06-30T06:46:36.871Z,24.11
2023-06-30T06:49:05.778Z,24.73
2023-06-30T06:51:34.830Z,25.07
2023-06-30T06:54:03.691Z,24.73
2023-06-30T06:56:32.135Z,25.21
2023-06-30T06:59:00.320Z,25.53
2023-06-30T07:01:28.700Z,25.69
2023-06-30T07:03:57.060Z,25.77
2023-06-30T07:06:26.078Z,26.01
2023-06-30T07:08:54.351Z,26.18
2023-06-30T07:11:22.704Z,26.34
2023-06-30T07:13:50.937Z,26.23
2023-06-30T07:16:19.584Z,26.56
2023-06-30T07:18:48.204Z,26.84
2023-06-30T07:21:16.517Z,26.78
2023-06-30T07:23:45.840Z,26.67
2023-06-30T07:26:14.106Z,26.67
2023-06-30T07:28:42.369Z,27.03
2023-06-30T07:31:10.719Z,27.18
2023-06-30T07:33:39.105Z,27.29
2023-06-30T07:36:07.631Z,27.67
2023-06-30T07:38:35.902Z,27.70
2023-06-30T07:41:04.128Z,27.55
2023-06-30T07:43:32.336Z,27.90
2023-06-30T07:46:00.636Z,28.11
2023-06-30T07:48:29.097Z,27.76
2023-06-30T07:51:08.714Z,28.20
2023-06-30T07:53:38.084Z,28.75
2023-06-30T07:56:06.329Z,28.42
2023-06-30T07:58:34.617Z,28.52
2023-06-30T08:01:03.414Z,28.67
2023-06-30T08:03:31.832Z,28.65
2023-06-30T08:06:01.483Z,28.05
2023-06-30T08:08:32.547Z,27.86
2023-06-30T08:11:00.898Z,27.59
2023-06-30T08:13:29.264Z,26.92
2023-06-30T08:15:57.685Z,25.96
2023-06-30T08:18:32.365Z,25.91
2023-06-30T08:21:04.105Z,26.78
2023-06-30T08:23:32.737Z,26.56
2023-06-30T08:26:01.196Z,26.20
2023-06-30T08:28:29.507Z,26.57
2023-06-30T08:30:57.830Z,26.89
2023-06-30T08:33:39.876Z,27.03
2023-06-30T08:36:09.185Z,27.41
2023-06-30T08:38:37.551Z,27.57
2023-06-30T08:41:05.931Z,27.57
2023-06-30T08:43:34.388Z,27.37
2023-06-30T08:46:05.100Z,27.54
2023-06-30T08:48:34.076Z,27.72
2023-06-30T08:51:03.558Z,28.00
2023-06-30T08:53:32.621Z,28.30
2023-06-30T08:56:01.523Z,28.37
2023-06-30T08:58:30.385Z,28.47
2023-06-30T09:00:59.009Z,28.38
2023-06-30T09:03:28.341Z,28.48
2023-06-30T09:05:59.895Z,28.42
2023-06-30T09:08:35.139Z,28.37
2023-06-30T09:11:05.714Z,27.96
2023-06-30T09:13:36.969Z,27.83
2023-06-30T09:16:09.453Z,27.70
2023-06-30T09:18:38.073Z,27.34
2023-06-30T09:21:07.857Z,27.73
2023-06-30T09:23:36.233Z,27.81
2023-06-30T09:26:13.893Z,27.59
2023-06-30T09:28:46.339Z,27.81
2023-06-30T09:31:15.854Z,27.86
2023-06-30T09:33:48.783Z,27.60
2023-06-30T09:36:18.931Z,27.60
2023-06-30T09:38:47.321Z,27.72
2023-06-30T09:41:21.345Z,27.32
2023-06-30T09:43:58.050Z,27.23
2023-06-30T09:46:29.880Z,27.27
2023-06-30T09:48:59.714Z,27.37
2023-06-30T09:51:28.152Z,27.38
2023-06-30T09:53:57.595Z,27.26
2023-06-30T09:56:28.243Z,27.29
2023-06-30T09:59:00.378Z,27.24
2023-06-30T10:01:30.076Z,27.21
2023-06-30T10:03:58.676Z,27.24
2023-06-30T10:06:29.849Z,27.08
2023-06-30T10:08:59.660Z,26.83
2023-06-30T10:11:29.525Z,26.53
2023-06-30T10:14:00.753Z,26.59
2023-06-30T10:16:30.450Z,26.69
2023-06-30T10:19:03.916Z,26.76
2023-06-30T10:21:32.525Z,26.80
2023-06-30T10:24:03.557Z,26.86
2023-06-30T10:26:36.023Z,26.91
2023-06-30T10:29:05.819Z,26.69
2023-06-30T10:31:34.654Z,26.45
2023-06-30T10:34:03.847Z,26.09
2023-06-30T10:36:32.851Z,25.77
2023-06-30T10:39:01.867Z,25.55
2023-06-30T10:41:30.622Z,25.23
2023-06-30T10:44:01.681Z,24.92
2023-06-30T10:46:42.386Z,24.65
2023-06-30T10:49:35.670Z,24.36
2023-06-30T10:52:08.741Z,24.02
2023-06-30T10:55:09.863Z,23.74
2023-06-30T10:57:38.508Z,23.78
2023-06-30T11:00:15.852Z,24.13
2023-06-30T11:02:51.387Z,24.71
2023-06-30T11:05:31.337Z,25.00
2023-06-30T11:08:08.263Z,25.31
2023-06-30T11:10:45.858Z,25.66
2023-06-30T11:13:15.497Z,25.85
2023-06-30T11:15:44.274Z,26.05
2023-06-30T11:18:17.073Z,26.29
2023-06-30T11:21:05.839Z,26.15
2023-06-30T11:23:40.086Z,26.01
2023-06-30T11:26:20.294Z,25.69
2023-06-30T11:28:49.852Z,25.86
2023-06-30T11:31:18.905Z,25.76
2023-06-30T11:33:47.786Z,25.91
2023-06-30T11:36:17.944Z,26.06
2023-06-30T11:38:50.518Z,26.19
2023-06-30T11:41:20.488Z,26.29
2023-06-30T11:43:55.086Z,26.39
2023-06-30T11:46:23.955Z,26.53
2023-06-30T11:48:52.263Z,26.58
2023-06-30T11:51:20.835Z,26.77
2023-06-30T11:53:50.089Z,26.97
2023-06-30T11:56:22.053Z,27.09
2023-06-30T11:58:54.262Z,27.13
2023-06-30T12:01:22.770Z,27.19
2023-06-30T12:03:59.377Z,27.30
2023-06-30T12:06:29.565Z,27.36
2023-06-30T12:08:58.665Z,27.49
2023-06-30T12:11:30.668Z,27.52
2023-06-30T12:13:59.008Z,27.25
2023-06-30T12:16:28.173Z,27.48
2023-06-30T12:18:56.509Z,27.51
2023-06-30T12:21:24.838Z,27.53
2023-06-30T12:23:53.101Z,27.53
2023-06-30T12:26:30.376Z,27.51
2023-06-30T12:29:06.416Z,27.64
2023-06-30T12:31:35.074Z,27.70
2023-06-30T12:34:03.697Z,27.82
2023-06-30T12:36:32.098Z,27.84
2023-06-30T12:39:00.547Z,27.93
2023-06-30T12:41:29.155Z,28.06
2023-06-30T12:43:59.982Z,27.94
2023-06-30T12:46:28.625Z,27.99
2023-06-30T12:48:57.106Z,28.08
2023-06-30T12:51:25.415Z,28.11
2023-06-30T12:53:53.617Z,28.19
2023-06-30T12:56:21.943Z,28.18
2023-06-30T12:58:50.244Z,28.12
2023-06-30T13:01:19.285Z,27.98
2023-06-30T13:03:47.685Z,28.03
2023-06-30T13:06:16.184Z,28.18
2023-06-30T13:08:44.412Z,28.17
2023-06-30T13:11:13.241Z,28.10
2023-06-30T13:13:41.527Z,28.09
2023-06-30T13:16:09.885Z,27.88
2023-06-30T13:18:38.192Z,27.50
2023-06-30T13:21:06.680Z,27.09
2023-06-30T13:23:37.370Z,26.73
2023-06-30T13:26:07.491Z,26.34
2023-06-30T13:28:36.174Z,26.11
2023-06-30T13:31:07.027Z,26.02
2023-06-30T13:33:35.340Z,26.04
2023-06-30T13:36:04.765Z,26.19
2023-06-30T13:38:33.281Z,26.51
2023-06-30T13:41:01.563Z,26.66
2023-06-30T13:43:32.851Z,26.58
2023-06-30T13:46:01.159Z,26.64
2023-06-30T13:48:29.546Z,26.73
2023-06-30T13:50:57.931Z,26.73
2023-06-30T13:53:26.473Z,26.75
2023-06-30T13:55:57.562Z,26.83
2023-06-30T13:58:25.824Z,26.58
2023-06-30T14:00:54.174Z,25.99
2023-06-30T14:03:22.629Z,25.60
2023-06-30T14:05:53.622Z,25.29
2023-06-30T14:08:22.254Z,25.03
2023-06-30T14:10:50.621Z,25.09
2023-06-30T14:13:19.013Z,25.13
2023-06-30T14:15:47.696Z,25.22
2023-06-30T14:18:16.339Z,25.33
2023-06-30T14:20:48.390Z,25.49
2023-06-30T14:23:16.775Z,25.66
2023-06-30T14:25:45.174Z,25.52
2023-06-30T14:28:13.721Z,25.22
2023-06-30T14:30:42.102Z,24.96
2023-06-30T14:33:10.505Z,24.79
2023-06-30T14:35:38.935Z,24.92
2023-06-30T14:38:07.699Z,24.95
2023-06-30T14:40:37.008Z,24.94
2023-06-30T14:43:05.435Z,24.80
2023-06-30T14:45:36.209Z,24.59
2023-06-30T14:48:04.750Z,24.32
2023-06-30T14:50:33.053Z,24.19
2023-06-30T14:53:01.291Z,24.28
2023-06-30T14:55:29.562Z,24.37
2023-06-30T14:57:58.927Z,24.39
2023-06-30T15:00:27.202Z,24.38
2023-06-30T15:02:56.500Z,24.49
2023-06-30T15:05:25.097Z,24.54
2023-06-30T15:07:55.049Z,24.61
2023-06-30T15:10:23.884Z,24.63
2023-06-30T15:12:53.110Z,24.64
2023-06-30T15:15:21.572Z,24.61
2023-06-30T15:17:50.043Z,24.56
2023-06-30T15:20:18.478Z,24.58
2023-06-30T15:22:46.711Z,24.51
2023-06-30T15:25:29.173Z,24.53
2023-06-30T15:27:58.384Z,24.52
2023-06-30T15:30:26.653Z,24.48
2023-06-30T15:32:55.124Z,24.42
2023-06-30T15:35:26.340Z,24.37
2023-06-30T15:37:54.750Z,24.21
2023-06-30T15:40:22.977Z,24.06
2023-06-30T15:42:51.400Z,23.96
2023-06-30T15:45:20.216Z,23.89
2023-06-30T15:47:48.577Z,23.79
2023-06-30T15:50:16.907Z,23.60
2023-06-30T15:52:45.221Z,23.51
2023-06-30T15:55:15.675Z,23.44
2023-06-30T15:57:44.111Z,23.26
2023-06-30T16:00:13.177Z,23.10
2023-06-30T16:02:43.441Z,23.00
2023-06-30T16:05:12.066Z,22.89
2023-06-30T16:07:40.418Z,22.79
2023-06-30T16:10:09.039Z,22.56
2023-06-30T16:12:37.440Z,22.47
2023-06-30T16:15:09.088Z,22.40
2023-06-30T16:17:37.433Z,22.27
2023-06-30T16:20:07.143Z,22.15
2023-06-30T16:22:35.568Z,21.94
2023-06-30T16:25:03.892Z,21.87
2023-06-30T16:27:32.176Z,21.78
2023-06-30T16:30:29.716Z,21.67
2023-06-30T16:33:00.577Z,21.54
2023-06-30T16:35:29.564Z,21.42
2023-06-30T16:38:01.147Z,21.26
2023-06-30T16:40:29.500Z,21.10
2023-06-30T16:42:58.010Z,21.00
2023-06-30T16:45:26.585Z,20.88
2023-06-30T16:47:55.444Z,20.73
2023-06-30T16:50:23.794Z,20.62
2023-06-30T16:52:52.222Z,20.51
2023-06-30T16:55:20.600Z,20.35
2023-06-30T16:57:49.438Z,20.14
2023-06-30T17:00:18.376Z,19.98
2023-06-30T17:02:48.052Z,19.85
2023-06-30T17:05:17.176Z,19.67
2023-06-30T17:07:45.644Z,19.56
2023-06-30T17:10:13.970Z,19.44
2023-06-30T17:12:42.122Z,19.35
2023-06-30T17:15:10.766Z,19.22
2023-06-30T17:17:39.162Z,19.11
2023-06-30T17:20:08.472Z,19.00
2023-06-30T17:22:36.999Z,18.88
2023-06-30T17:25:06.156Z,18.76
2023-06-30T17:27:34.876Z,18.65
2023-06-30T17:30:03.351Z,18.53
2023-06-30T17:32:31.672Z,18.42
2023-06-30T17:34:59.971Z,18.31
2023-06-30T17:37:28.483Z,18.19
2023-06-30T17:39:57.052Z,18.09
2023-06-30T17:42:25.344Z,17.99
2023-06-30T17:44:54.664Z,17.89
2023-06-30T17:47:24.022Z,17.78
2023-06-30T17:49:52.299Z,17.66
2023-06-30T17:52:20.611Z,17.56
2023-06-30T17:54:49.083Z,17.47
2023-06-30T17:57:17.405Z,17.36
2023-06-30T17:59:45.737Z,17.26
2023-06-30T18:02:14.186Z,17.16
2023-06-30T18:04:43.127Z,17.06
2023-06-30T18:07:13.009Z,16.97
2023-06-30T18:09:43.868Z,16.90
2023-06-30T18:12:12.837Z,16.83
2023-06-30T18:14:43.120Z,16.74
2023-06-30T18:17:11.531Z,16.64
2023-06-30T18:19:43.603Z,16.53
2023-06-30T18:22:12.883Z,16.44
2023-06-30T18:24:41.436Z,16.35
2023-06-30T18:27:09.662Z,16.28
2023-06-30T18:29:40.705Z,16.24
2023-06-30T18:32:09.583Z,16.19
2023-06-30T18:34:37.962Z,16.12
2023-06-30T18:37:08.672Z,16.03
2023-06-30T18:39:38.922Z,15.93
2023-06-30T18:42:07.614Z,15.81
2023-06-30T18:44:38.074Z,15.70
2023-06-30T18:47:07.189Z,15.59
2023-06-30T18:49:36.116Z,15.51
2023-06-30T18:52:04.717Z,15.46
2023-06-30T18:54:32.951Z,15.39
2023-06-30T18:57:01.179Z,15.29
2023-06-30T18:59:29.494Z,15.24
2023-06-30T19:01:57.839Z,15.17
2023-06-30T19:04:26.423Z,15.08
2023-06-30T19:06:54.735Z,15.01
2023-06-30T19:09:23.192Z,14.93
2023-06-30T19:11:51.465Z,14.84
2023-06-30T19:14:22.146Z,14.73
2023-06-30T19:16:50.474Z,14.64
2023-06-30T19:19:19.225Z,14.55
2023-06-30T19:21:47.496Z,14.49
2023-06-30T19:24:16.470Z,14.44
2023-06-30T19:26:44.932Z,14.40
2023-06-30T19:29:13.155Z,14.37
2023-06-30T19:31:41.802Z,14.32
2023-06-30T19:34:10.650Z,14.26
2023-06-30T19:36:38.964Z,14.17
2023-06-30T19:39:07.342Z,14.07
2023-06-30T19:41:35.685Z,13.95
2023-06-30T19:44:04.588Z,13.82
2023-06-30T19:46:34.714Z,13.74
2023-06-30T19:49:03.295Z,13.67
2023-06-30T19:51:31.611Z,13.65
2023-06-30T19:53:59.907Z,13.59
2023-06-30T19:56:28.211Z,13.54
2023-06-30T19:58:56.566Z,13.48
2023-06-30T20:01:27.740Z,13.43
2023-06-30T20:03:56.561Z,13.35
2023-06-30T20:06:24.838Z,13.28
2023-06-30T20:08:53.185Z,13.21
2023-06-30T20:11:21.541Z,13.14
2023-06-30T20:13:49.861Z,13.10
2023-06-30T20:16:18.229Z,13.05
2023-06-30T20:18:46.714Z,12.99
2023-06-30T20:21:15.064Z,12.94
2023-06-30T20:23:43.452Z,12.90
2023-06-30T20:26:11.736Z,12.83
2023-06-30T20:28:39.949Z,12.74
2023-06-30T20:31:08.253Z,12.65
2023-06-30T20:33:36.928Z,12.53
2023-06-30T20:36:05.375Z,12.48
2023-06-30T20:38:33.671Z,12.44
2023-06-30T20:41:01.902Z,12.42
2023-06-30T20:43:30.382Z,12.36
2023-06-30T20:45:58.802Z,12.34
2023-06-30T20:48:26.984Z,12.31
2023-06-30T20:50:55.207Z,12.24
2023-06-30T20:53:23.549Z,12.18
2023-06-30T20:55:51.850Z,12.09
2023-06-30T20:58:20.619Z,12.02
2023-06-30T21:00:49.083Z,11.99
2023-06-30T21:03:17.716Z,11.97
2023-06-30T21:05:46.200Z,11.96
2023-06-30T21:08:14.480Z,11.98
2023-06-30T21:10:42.686Z,11.96
2023-06-30T21:13:10.937Z,11.94
2023-06-30T21:15:39.359Z,11.88
2023-06-30T21:18:07.719Z,11.85
2023-06-30T21:20:36.092Z,11.82
2023-06-30T21:23:04.679Z,11.75
2023-06-30T21:25:32.937Z,11.70
2023-06-30T21:28:01.240Z,11.64
2023-06-30T21:30:29.475Z,11.61
2023-06-30T21:32:57.923Z,11.58
2023-06-30T21:35:26.449Z,11.55
2023-06-30T21:37:54.754Z,11.50
2023-06-30T21:40:22.928Z,11.49
2023-06-30T21:42:51.326Z,11.44
2023-06-30T21:45:19.741Z,11.36
2023-06-30T21:47:48.000Z,11.29
2023-06-30T21:50:16.369Z,11.22
2023-06-30T21:52:44.600Z,11.20
2023-06-30T21:55:13.001Z,11.21
2023-06-30T21:57:41.330Z,11.24
2023-06-30T22:00:11.009Z,11.22
2023-06-30T22:02:42.146Z,11.21
2023-06-30T22:05:10.602Z,11.21
2023-06-30T22:07:38.822Z,11.18
2023-06-30T22:10:08.369Z,11.13
2023-06-30T22:12:36.711Z,11.09
2023-06-30T22:15:05.657Z,11.06
2023-06-30T22:17:34.011Z,11.01
2023-06-30T22:20:02.609Z,10.98
2023-06-30T22:22:30.877Z,10.94
2023-06-30T22:24:59.222Z,10.91
2023-06-30T22:27:27.414Z,10.85
2023-06-30T22:29:55.702Z,10.81
2023-06-30T22:32:24.139Z,10.76
2023-06-30T22:34:52.641Z,10.73
2023-06-30T22:37:20.923Z,10.74
2023-06-30T22:39:49.160Z,10.75
2023-06-30T22:42:17.527Z,10.76
2023-06-30T22:44:45.658Z,10.76
2023-06-30T22:47:14.138Z,10.74
2023-06-30T22:49:42.678Z,10.73
2023-06-30T22:52:10.965Z,10.73
2023-06-30T22:54:39.332Z,10.73
2023-06-30T22:57:07.707Z,10.74
2023-06-30T22:59:36.065Z,10.72
2023-06-30T23:02:04.587Z,10.71
2023-06-30T23:04:33.041Z,10.70
2023-06-30T23:07:01.320Z,10.71
2023-06-30T23:09:29.605Z,10.69
2023-06-30T23:11:57.900Z,10.66
2023-06-30T23:14:26.169Z,10.59
2023-06-30T23:16:54.515Z,10.53
2023-06-30T23:19:27.590Z,10.48
2023-06-30T23:22:09.165Z,10.45
2023-06-30T23:24:41.332Z,10.41
2023-06-30T23:27:09.737Z,10.39
2023-06-30T23:29:38.683Z,10.36
2023-06-30T23:32:08.277Z,10.30
2023-06-30T23:34:40.439Z,10.25
2023-06-30T23:37:12.546Z,10.20
2023-06-30T23:39:41.750Z,10.15
2023-06-30T23:42:10.703Z,10.12
2023-06-30T23:44:39.035Z,10.11
2023-06-30T23:47:15.288Z,10.09
2023-06-30T23:49:43.646Z,10.07
2023-06-30T23:52:11.992Z,10.07
2023-06-30T23:54:40.338Z,10.09
2023-06-30T23:57:08.587Z,10.06
2023-06-30T23:59:36.959Z,9.99
